createdAt,value
2023-02-04T00:08:22.445Z,101977.28
2023-02-04T00:18:24.765Z,101994.00
2023-02-04T00:28:26.836Z,102008.91
2023-02-04T00:38:29.776Z,102021.03
2023-02-04T00:48:32.211Z,102013.03
2023-02-04T00:58:34.405Z,102019.91
2023-02-04T01:08:38.592Z,102041.19
2023-02-04T01:18:41.712Z,102056.97
2023-02-04T01:28:44.182Z,102051.72
2023-02-04T01:38:46.508Z,102072.72
2023-02-04T01:48:48.909Z,102068.78
2023-02-04T01:58:51.250Z,102080.44
2023-02-04T02:08:53.680Z,102099.38
2023-02-04T02:18:57.714Z,102091.72
2023-02-04T02:29:00.079Z,102103.69
2023-02-04T02:39:02.223Z,102108.50
2023-02-04T02:49:04.643Z,102107.84
2023-02-04T02:59:17.520Z,102114.88
2023-02-04T03:09:20.007Z,102125.53
2023-02-04T03:19:24.446Z,102119.31
2023-02-04T03:29:28.446Z,102122.47
2023-02-04T03:39:32.038Z,102134.72
2023-02-04T03:49:35.827Z,102142.28
2023-02-04T03:59:38.284Z,102151.25
2023-02-04T04:09:40.618Z,102165.97
2023-02-04T04:19:44.635Z,102177.41
2023-02-04T04:29:46.729Z,102189.31
2023-02-04T04:39:48.889Z,102204.44
2023-02-04T04:49:51.000Z,102200.63
2023-02-04T04:59:53.124Z,102202.16
2023-02-04T05:09:55.197Z,102220.91
2023-02-04T05:19:57.517Z,102237.16
2023-02-04T05:30:00.769Z,102234.34
2023-02-04T05:40:03.179Z,102246.22
2023-02-04T05:50:06.624Z,102251.69
2023-02-04T06:00:09.843Z,102270.88
2023-02-04T06:10:15.173Z,102286.66
2023-02-04T06:20:17.551Z,102294.97
2023-02-04T06:30:19.988Z,102305.13
2023-02-04T06:40:22.244Z,102294.16
2023-02-04T06:50:24.431Z,102302.63
2023-02-04T07:00:26.611Z,102313.25
2023-02-04T07:10:28.779Z,102324.00
2023-02-04T07:20:31.252Z,102337.56
2023-02-04T07:30:34.049Z,102332.72
2023-02-04T07:40:36.441Z,102343.72
2023-02-04T07:50:39.046Z,102359.09
2023-02-04T08:00:41.342Z,102368.66
2023-02-04T08:10:43.528Z,102369.72
2023-02-04T08:20:46.262Z,102376.44
2023-02-04T08:30:49.345Z,102394.78
2023-02-04T08:40:52.981Z,102418.59
2023-02-04T08:50:55.698Z,102424.38
2023-02-04T09:00:58.184Z,102433.78
2023-02-04T09:11:01.274Z,102440.75
2023-02-04T09:21:04.067Z,102441.78
2023-02-04T09:31:07.390Z,102448.97
2023-02-04T09:41:12.440Z,102454.19
2023-02-04T09:51:18.971Z,102465.00
2023-02-04T10:01:21.491Z,102465.69
2023-02-04T10:11:25.918Z,102483.06
2023-02-04T10:21:30.328Z,102485.34
2023-02-04T10:31:38.216Z,102489.97
2023-02-04T10:41:49.883Z,102504.59
2023-02-04T10:51:52.856Z,102478.91
2023-02-04T11:01:57.107Z,102489.09
2023-02-04T11:12:00.339Z,102493.06
2023-02-04T11:22:22.699Z,102494.03
2023-02-04T11:32:29.885Z,102501.94
2023-02-04T11:42:32.048Z,102498.38
2023-02-04T11:52:36.182Z,102484.00
2023-02-04T12:02:48.906Z,102493.97
2023-02-04T12:12:55.874Z,102498.00
2023-02-04T12:22:58.273Z,102490.03
2023-02-04T12:33:00.576Z,102501.50
2023-02-04T12:43:03.060Z,102516.06
2023-02-04T12:53:06.412Z,102516.81
2023-02-04T13:03:09.868Z,102519.56
2023-02-04T13:13:12.573Z,102525.00
2023-02-04T13:23:15.076Z,102507.19
2023-02-04T13:43:55.786Z,102503.88
2023-02-04T13:54:00.929Z,102495.38
2023-02-04T14:04:04.941Z,102489.31
2023-02-04T14:14:08.825Z,102493.34
2023-02-04T14:24:11.306Z,102495.84
2023-02-04T14:34:13.958Z,102500.84
2023-02-04T14:44:21.082Z,102506.28
2023-02-04T14:54:24.164Z,102501.84
2023-02-04T15:04:26.957Z,102510.91
2023-02-04T15:14:30.225Z,102511.91
2023-02-04T15:24:32.694Z,102505.63
2023-02-04T15:34:35.186Z,102518.56
2023-02-04T15:44:38.629Z,102517.09
2023-02-04T15:54:40.959Z,102527.53
2023-02-04T16:04:45.610Z,102545.47
2023-02-04T16:14:48.781Z,102537.31
2023-02-04T16:24:53.095Z,102554.47
2023-02-04T16:34:56.787Z,102571.09
2023-02-04T16:44:59.391Z,102576.69
2023-02-04T16:55:01.805Z,102581.84
2023-02-04T17:05:05.555Z,102589.78
2023-02-04T17:15:08.126Z,102603.38
2023-02-04T17:25:10.968Z,102595.94
2023-02-04T17:35:14.089Z,102597.50
2023-02-04T17:45:17.848Z,102603.25
2023-02-04T17:55:27.852Z,102598.09
2023-02-04T18:05:31.026Z,102604.00
2023-02-04T18:15:34.654Z,102604.69
2023-02-04T18:25:37.191Z,102611.31
2023-02-04T18:35:46.970Z,102617.66
2023-02-04T18:45:49.805Z,102608.78
2023-02-04T18:55:55.966Z,102602.59
2023-02-04T19:06:00.249Z,102620.56
2023-02-04T19:16:07.253Z,102620.16
2023-02-04T19:26:43.415Z,102620.19
2023-02-04T19:36:47.062Z,102639.88
2023-02-04T19:46:50.098Z,102631.97
2023-02-04T19:56:55.053Z,102640.00
2023-02-04T20:06:58.277Z,102647.75
2023-02-04T20:17:03.850Z,102639.84
2023-02-04T20:27:17.041Z,102633.09
2023-02-04T20:37:27.165Z,102617.97
2023-02-04T20:47:30.442Z,102627.00
2023-02-04T20:57:34.948Z,102612.97
2023-02-04T21:07:37.849Z,102605.69
2023-02-04T21:17:42.063Z,102607.50
2023-02-04T21:27:44.837Z,102618.72
2023-02-04T21:37:48.320Z,102608.16
2023-02-04T21:47:52.848Z,102628.50
2023-02-04T21:57:56.776Z,102620.16
2023-02-04T22:08:00.057Z,102612.50
2023-02-04T22:18:02.988Z,102603.50
2023-02-04T22:28:06.231Z,102577.13
2023-02-04T22:38:09.336Z,102592.53
2023-02-04T22:48:13.291Z,102567.72
2023-02-04T22:58:16.298Z,102575.50
2023-02-04T23:08:19.520Z,102602.25
2023-02-04T23:18:22.756Z,102607.13
2023-02-04T23:28:27.230Z,102603.88
2023-02-04T23:38:31.598Z,102590.97
2023-02-04T23:48:34.790Z,102598.44
2023-02-04T23:58:37.836Z,102569.34
